createdAt,value
2023-03-31T00:00:01.810Z,63.21
2023-03-31T00:03:10.093Z,54.73
2023-03-31T00:05:48.346Z,57.53
2023-03-31T00:08:41.799Z,61.00
2023-03-31T00:11:22.818Z,65.82
2023-03-31T00:14:18.799Z,57.32
2023-03-31T00:17:08.823Z,54.74
2023-03-31T00:19:43.937Z,58.18
2023-03-31T00:22:33.795Z,61.74
2023-03-31T00:25:16.936Z,64.43
2023-03-31T00:27:59.803Z,55.26
2023-03-31T00:30:41.128Z,55.86
2023-03-31T00:33:22.825Z,59.52
2023-03-31T00:36:06.639Z,64.56
2023-03-31T00:38:52.802Z,59.00
2023-03-31T00:41:34.945Z,53.97
2023-03-31T00:44:29.812Z,57.07
2023-03-31T00:47:23.924Z,61.35
2023-03-31T00:50:05.820Z,64.82
2023-03-31T00:52:46.945Z,56.90
2023-03-31T00:55:31.885Z,55.42
2023-03-31T00:58:14.709Z,58.74
2023-03-31T01:00:57.825Z,63.23
2023-03-31T01:03:45.874Z,62.96
2023-03-31T01:06:20.315Z,56.02
2023-03-31T01:09:07.828Z,57.23
2023-03-31T01:11:55.811Z,60.39
2023-03-31T01:14:43.792Z,64.92
2023-03-31T01:17:19.531Z,62.53
2023-03-31T01:20:36.794Z,54.26
2023-03-31T01:23:43.953Z,56.65
2023-03-31T01:26:31.884Z,61.31
2023-03-31T01:29:34.877Z,66.09
2023-03-31T01:32:37.024Z,56.79
2023-03-31T01:35:39.845Z,56.41
2023-03-31T01:38:31.600Z,60.86
2023-03-31T01:41:27.817Z,64.64
2023-03-31T01:44:20.138Z,56.07
2023-03-31T01:47:14.787Z,55.59
2023-03-31T01:50:02.807Z,60.19
2023-03-31T01:52:54.947Z,64.76
2023-03-31T01:55:42.821Z,58.37
2023-03-31T01:58:28.973Z,54.25
2023-03-31T02:01:13.848Z,58.29
2023-03-31T02:04:01.981Z,62.27
2023-03-31T02:06:46.832Z,65.63
2023-03-31T02:09:31.007Z,57.02
2023-03-31T02:12:15.792Z,55.55
2023-03-31T02:14:57.932Z,59.76
2023-03-31T02:17:39.814Z,64.89
2023-03-31T02:20:21.958Z,59.75
2023-03-31T02:23:03.900Z,54.47
2023-03-31T02:25:54.981Z,57.67
2023-03-31T02:28:35.799Z,61.85
2023-03-31T02:31:34.961Z,66.45
2023-03-31T02:34:15.816Z,58.87
2023-03-31T02:36:56.936Z,55.51
2023-03-31T02:39:40.867Z,58.89
2023-03-31T02:42:21.940Z,63.41
2023-03-31T02:45:09.784Z,62.91
2023-03-31T02:47:57.818Z,54.72
2023-03-31T02:50:37.511Z,56.80
2023-03-31T02:53:50.817Z,60.55
2023-03-31T02:56:52.869Z,65.08
2023-03-31T02:59:55.813Z,56.42
2023-03-31T03:02:56.309Z,55.49
2023-03-31T03:05:56.914Z,60.02
2023-03-31T03:08:42.607Z,64.47
2023-03-31T03:11:44.787Z,59.15
2023-03-31T03:14:34.648Z,54.55
2023-03-31T03:17:31.831Z,58.49
2023-03-31T03:20:17.809Z,61.56
2023-03-31T03:22:58.921Z,65.65
2023-03-31T03:25:40.864Z,56.79
2023-03-31T03:28:21.948Z,55.02
2023-03-31T03:31:03.932Z,59.17
2023-03-31T03:33:51.881Z,63.15
2023-03-31T03:36:26.418Z,63.62
2023-03-31T03:39:14.803Z,55.28
2023-03-31T03:41:49.199Z,55.98
2023-03-31T03:44:36.781Z,59.55
2023-03-31T03:47:17.790Z,64.90
2023-03-31T03:49:58.946Z,60.93
2023-03-31T03:52:39.808Z,53.74
2023-03-31T03:55:27.790Z,54.93
2023-03-31T03:58:02.448Z,59.24
2023-03-31T04:00:51.776Z,63.57
2023-03-31T04:03:32.771Z,61.57
2023-03-31T04:06:13.923Z,53.75
2023-03-31T04:08:54.792Z,55.18
2023-03-31T04:11:49.792Z,58.68
2023-03-31T04:14:37.770Z,62.91
2023-03-31T04:17:16.054Z,63.83
2023-03-31T04:20:08.779Z,55.48
2023-03-31T04:22:47.172Z,56.09
2023-03-31T04:25:37.803Z,59.47
2023-03-31T04:28:14.868Z,63.53
2023-03-31T04:31:05.877Z,63.06
2023-03-31T04:33:47.861Z,54.35
2023-03-31T04:36:42.857Z,56.33
2023-03-31T04:39:33.876Z,60.31
2023-03-31T04:42:08.908Z,65.13
2023-03-31T04:44:57.254Z,61.68
2023-03-31T04:47:32.043Z,53.60
2023-03-31T04:50:19.818Z,55.38
2023-03-31T04:53:01.812Z,58.81
2023-03-31T04:55:56.809Z,61.45
2023-03-31T04:58:44.855Z,66.60
2023-03-31T05:01:20.025Z,58.97
2023-03-31T05:04:07.783Z,53.24
2023-03-31T05:06:49.785Z,55.70
2023-03-31T05:09:44.793Z,59.46
2023-03-31T05:12:39.790Z,63.90
2023-03-31T05:15:35.129Z,62.44
2023-03-31T05:18:22.789Z,53.44
2023-03-31T05:21:04.783Z,55.28
2023-03-31T05:23:59.788Z,58.97
2023-03-31T05:26:47.780Z,62.94
2023-03-31T05:29:22.912Z,62.81
2023-03-31T05:32:10.809Z,54.70
2023-03-31T05:34:46.509Z,54.30
2023-03-31T05:37:34.788Z,57.40
2023-03-31T05:40:16.777Z,60.44
2023-03-31T05:43:11.788Z,63.42
2023-03-31T05:45:59.811Z,61.31
2023-03-31T05:48:34.885Z,52.97
2023-03-31T05:51:22.783Z,54.29
2023-03-31T05:54:10.772Z,57.89
2023-03-31T05:56:58.821Z,60.24
2023-03-31T05:59:35.792Z,62.34
2023-03-31T06:02:23.818Z,65.53
2023-03-31T06:05:05.781Z,55.16
2023-03-31T06:08:00.764Z,54.63
2023-03-31T06:10:49.796Z,56.59
2023-03-31T06:13:24.979Z,59.55
2023-03-31T06:16:13.803Z,61.33
2023-03-31T06:18:48.948Z,64.78
2023-03-31T06:21:36.780Z,58.22
2023-03-31T06:24:18.815Z,52.26
2023-03-31T06:27:13.803Z,54.74
2023-03-31T06:30:01.871Z,57.96
2023-03-31T06:32:37.027Z,60.20
2023-03-31T06:35:24.811Z,64.02
2023-03-31T06:37:59.959Z,59.78
2023-03-31T06:40:49.831Z,52.58
2023-03-31T06:43:24.895Z,53.95
2023-03-31T06:46:13.801Z,56.51
2023-03-31T06:48:48.966Z,58.44
2023-03-31T06:51:36.795Z,59.76
2023-03-31T06:54:18.791Z,60.52
2023-03-31T06:57:00.241Z,61.51
2023-03-31T06:59:47.748Z,64.57
2023-03-31T07:02:28.874Z,55.63
2023-03-31T07:05:25.832Z,53.61
2023-03-31T07:08:21.896Z,55.82
2023-03-31T07:11:10.144Z,57.59
2023-03-31T07:13:44.914Z,58.26
2023-03-31T07:16:32.921Z,59.46
2023-03-31T07:19:08.413Z,60.68
2023-03-31T07:21:57.889Z,60.68
2023-03-31T07:24:33.014Z,61.29
2023-03-31T07:27:20.847Z,61.83
2023-03-31T07:29:55.952Z,64.73
2023-03-31T07:32:47.886Z,55.52
2023-03-31T07:35:31.410Z,51.28
2023-03-31T07:38:27.756Z,53.77
2023-03-31T07:41:24.834Z,55.48
2023-03-31T07:44:06.862Z,56.27
2023-03-31T07:46:54.780Z,57.17
2023-03-31T07:49:36.867Z,58.36
2023-03-31T07:52:31.779Z,59.02
2023-03-31T07:55:19.816Z,60.35
2023-03-31T07:58:00.984Z,60.27
2023-03-31T08:00:42.759Z,60.30
2023-03-31T08:03:23.904Z,60.21
2023-03-31T08:06:05.003Z,59.88
2023-03-31T08:08:45.897Z,59.70
2023-03-31T08:11:27.938Z,59.34
2023-03-31T08:14:16.503Z,59.73
2023-03-31T08:17:14.118Z,58.99
2023-03-31T08:20:08.746Z,59.23
2023-03-31T08:22:56.847Z,60.23
2023-03-31T08:25:31.990Z,60.30
2023-03-31T08:28:20.840Z,59.98
2023-03-31T08:30:56.490Z,58.31
2023-03-31T08:33:44.836Z,55.89
2023-03-31T08:36:23.349Z,55.86
2023-03-31T08:39:13.781Z,57.77
2023-03-31T08:42:16.347Z,57.24
2023-03-31T08:44:55.861Z,54.60
2023-03-31T08:47:45.797Z,54.33
2023-03-31T08:50:34.754Z,55.05
2023-03-31T08:53:30.082Z,54.23
2023-03-31T08:56:15.769Z,55.12
2023-03-31T08:59:02.548Z,55.41
2023-03-31T09:02:03.923Z,53.42
2023-03-31T09:05:00.770Z,51.46
2023-03-31T09:08:09.761Z,52.02
2023-03-31T09:11:06.735Z,53.36
2023-03-31T09:14:09.760Z,52.75
2023-03-31T09:17:30.821Z,52.33
2023-03-31T09:20:37.880Z,51.95
2023-03-31T09:23:37.079Z,51.93
2023-03-31T09:26:33.935Z,52.27
2023-03-31T09:29:15.000Z,50.01
2023-03-31T09:32:09.901Z,51.68
2023-03-31T09:34:44.885Z,51.63
2023-03-31T09:37:34.767Z,50.97
2023-03-31T09:40:11.898Z,50.14
2023-03-31T09:43:28.920Z,49.70
2023-03-31T09:46:10.916Z,50.21
2023-03-31T09:49:32.951Z,50.22
2023-03-31T09:52:33.774Z,50.80
2023-03-31T09:55:10.955Z,51.01
2023-03-31T09:57:59.786Z,50.60
2023-03-31T10:00:34.928Z,49.66
2023-03-31T10:03:22.787Z,49.48
2023-03-31T10:06:01.916Z,50.40
2023-03-31T10:08:54.752Z,50.80
2023-03-31T10:11:30.112Z,50.01
2023-03-31T10:14:28.747Z,51.81
2023-03-31T10:17:28.783Z,49.28
2023-03-31T10:20:40.750Z,50.64
2023-03-31T10:23:24.942Z,48.24
2023-03-31T10:26:12.864Z,48.76
2023-03-31T10:28:47.912Z,50.53
2023-03-31T10:31:43.841Z,47.86
2023-03-31T10:34:21.943Z,46.74
2023-03-31T10:37:11.966Z,46.61
2023-03-31T10:39:49.931Z,48.17
2023-03-31T10:42:37.847Z,47.69
2023-03-31T10:45:37.913Z,47.87
2023-03-31T10:48:38.973Z,48.00
2023-03-31T10:51:32.923Z,46.62
2023-03-31T10:54:20.750Z,48.05
2023-03-31T10:57:12.821Z,46.85
2023-03-31T11:00:21.745Z,46.66
2023-03-31T11:03:25.889Z,46.17
2023-03-31T11:06:27.121Z,45.18
2023-03-31T11:09:20.786Z,43.63
2023-03-31T11:12:31.374Z,42.37
2023-03-31T11:15:36.776Z,44.22
2023-03-31T11:18:36.184Z,43.97
2023-03-31T11:21:58.763Z,44.45
2023-03-31T11:25:21.752Z,44.31
2023-03-31T11:28:40.772Z,44.07
2023-03-31T11:31:49.784Z,42.58
2023-03-31T11:34:45.892Z,43.06
2023-03-31T11:37:38.752Z,43.89
2023-03-31T11:40:21.888Z,43.03
2023-03-31T11:43:28.753Z,42.57
2023-03-31T11:46:41.289Z,42.57
2023-03-31T11:49:36.755Z,44.41
2023-03-31T11:52:22.492Z,44.25
2023-03-31T11:55:28.808Z,45.89
2023-03-31T11:58:10.766Z,45.93
2023-03-31T12:01:09.715Z,45.75
2023-03-31T12:04:06.872Z,45.50
2023-03-31T12:06:46.826Z,46.14
2023-03-31T12:10:01.468Z,46.36
2023-03-31T12:12:41.053Z,46.06
2023-03-31T12:15:36.802Z,47.34
2023-03-31T12:18:26.750Z,47.77
2023-03-31T12:21:23.751Z,48.18
2023-03-31T12:24:11.805Z,49.68
2023-03-31T12:26:57.983Z,49.84
2023-03-31T12:30:01.763Z,49.98
2023-03-31T12:32:43.169Z,49.23
2023-03-31T12:35:30.816Z,49.35
2023-03-31T12:38:27.876Z,49.46
2023-03-31T12:41:16.760Z,48.87
2023-03-31T12:44:26.760Z,48.38
2023-03-31T12:47:17.772Z,47.83
2023-03-31T12:50:05.745Z,47.48
2023-03-31T12:52:55.632Z,48.25
2023-03-31T12:56:03.939Z,47.61
2023-03-31T12:58:49.796Z,45.83
2023-03-31T13:01:37.870Z,45.95
2023-03-31T13:04:28.827Z,45.27
2023-03-31T13:07:27.850Z,44.10
2023-03-31T13:10:18.373Z,42.58
2023-03-31T13:13:18.773Z,42.35
2023-03-31T13:16:14.797Z,42.15
2023-03-31T13:19:02.820Z,41.91
2023-03-31T13:21:45.252Z,39.22
2023-03-31T13:24:34.830Z,38.38
2023-03-31T13:27:41.878Z,37.39
2023-03-31T13:30:48.950Z,38.02
2023-03-31T13:33:36.153Z,38.54
2023-03-31T13:36:39.757Z,39.00
2023-03-31T13:39:32.903Z,39.62
2023-03-31T13:42:48.739Z,41.28
2023-03-31T13:45:32.979Z,42.89
2023-03-31T13:48:45.784Z,43.06
2023-03-31T13:51:42.938Z,44.71
2023-03-31T13:54:45.761Z,44.59
2023-03-31T13:57:27.416Z,44.25
2023-03-31T14:00:49.742Z,44.07
2023-03-31T14:03:42.043Z,42.51
2023-03-31T14:06:33.770Z,40.21
2023-03-31T14:09:17.899Z,40.05
2023-03-31T14:12:06.754Z,41.12
2023-03-31T14:14:53.747Z,40.38
2023-03-31T14:17:45.782Z,41.88
2023-03-31T14:21:03.828Z,42.46
2023-03-31T14:24:08.759Z,44.58
2023-03-31T14:27:01.754Z,45.69
2023-03-31T14:29:56.156Z,46.34
2023-03-31T14:32:53.016Z,46.46
2023-03-31T14:35:51.741Z,46.92
2023-03-31T14:38:34.769Z,45.98
2023-03-31T14:41:30.016Z,46.67
2023-03-31T14:44:13.776Z,46.12
2023-03-31T14:46:54.934Z,46.80
2023-03-31T14:49:44.820Z,50.26
2023-03-31T14:52:35.810Z,51.59
2023-03-31T14:55:17.088Z,54.31
2023-03-31T14:58:05.764Z,55.80
2023-03-31T15:00:41.090Z,56.56
2023-03-31T15:03:28.778Z,57.08
2023-03-31T15:06:04.112Z,57.54
2023-03-31T15:08:52.781Z,58.65
2023-03-31T15:11:35.769Z,58.90
2023-03-31T15:14:30.750Z,58.83
2023-03-31T15:17:29.853Z,59.56
2023-03-31T15:20:06.993Z,60.69
2023-03-31T15:22:54.786Z,60.56
2023-03-31T15:25:33.035Z,60.73
2023-03-31T15:28:23.774Z,66.43
2023-03-31T15:31:09.739Z,64.17
2023-03-31T15:34:00.863Z,50.66
2023-03-31T15:36:42.452Z,50.70
2023-03-31T15:39:23.760Z,52.82
2023-03-31T15:42:07.892Z,54.40
2023-03-31T15:45:05.026Z,55.20
2023-03-31T15:48:02.934Z,56.06
2023-03-31T15:50:39.504Z,58.03
2023-03-31T15:53:43.759Z,58.03
2023-03-31T15:56:36.072Z,58.81
2023-03-31T15:59:54.643Z,59.88
2023-03-31T16:02:40.587Z,60.45
2023-03-31T16:05:54.369Z,60.99
2023-03-31T16:08:31.029Z,61.58
2023-03-31T16:11:23.036Z,62.24
2023-03-31T16:14:21.399Z,66.56
2023-03-31T16:17:26.935Z,62.96
2023-03-31T16:20:15.777Z,52.79
2023-03-31T16:23:11.707Z,52.80
2023-03-31T16:26:00.812Z,53.66
2023-03-31T16:28:44.897Z,56.31
2023-03-31T16:31:47.249Z,57.85
2023-03-31T16:34:34.780Z,58.07
2023-03-31T16:37:12.747Z,60.20
2023-03-31T16:40:00.822Z,69.57
2023-03-31T16:42:35.191Z,67.25
2023-03-31T16:45:23.743Z,56.16
2023-03-31T16:48:02.215Z,53.66
2023-03-31T16:51:01.745Z,54.34
2023-03-31T16:53:37.313Z,54.75
2023-03-31T16:56:25.767Z,55.30
2023-03-31T16:59:01.774Z,55.85
2023-03-31T17:01:49.753Z,56.79
2023-03-31T17:04:44.758Z,57.63
2023-03-31T17:07:32.752Z,58.43
2023-03-31T17:10:06.884Z,59.24
2023-03-31T17:12:54.763Z,59.90
2023-03-31T17:15:52.016Z,60.74
2023-03-31T17:18:48.760Z,60.86
2023-03-31T17:21:36.741Z,61.20
2023-03-31T17:24:17.873Z,71.35
2023-03-31T17:26:58.750Z,67.65
2023-03-31T17:29:46.764Z,56.12
2023-03-31T17:32:22.184Z,53.62
2023-03-31T17:35:09.948Z,55.03
2023-03-31T17:37:52.829Z,56.59
2023-03-31T17:40:42.808Z,57.48
2023-03-31T17:43:24.745Z,58.19
2023-03-31T17:46:14.260Z,59.31
2023-03-31T17:48:55.739Z,60.01
2023-03-31T17:51:37.402Z,60.58
2023-03-31T17:54:18.745Z,67.92
2023-03-31T17:57:07.803Z,67.49
2023-03-31T17:59:42.227Z,56.42
2023-03-31T18:02:29.784Z,53.46
2023-03-31T18:05:06.438Z,54.87
2023-03-31T18:07:54.742Z,55.89
2023-03-31T18:10:29.603Z,56.99
2023-03-31T18:13:18.483Z,58.44
2023-03-31T18:16:15.971Z,58.97
2023-03-31T18:19:04.768Z,59.41
2023-03-31T18:21:54.754Z,59.63
2023-03-31T18:24:32.287Z,60.67
2023-03-31T18:27:19.771Z,60.88
2023-03-31T18:29:56.107Z,61.40
2023-03-31T18:32:45.833Z,69.52
2023-03-31T18:35:21.115Z,65.42
2023-03-31T18:38:09.857Z,54.85
2023-03-31T18:40:51.543Z,52.61
2023-03-31T18:43:39.755Z,54.25
2023-03-31T18:46:14.652Z,55.89
2023-03-31T18:49:02.859Z,57.43
2023-03-31T18:51:37.155Z,59.09
2023-03-31T18:54:24.752Z,60.26
2023-03-31T18:56:59.239Z,61.09
2023-03-31T18:59:47.768Z,68.44
2023-03-31T19:02:23.196Z,66.84
2023-03-31T19:05:10.759Z,56.00
2023-03-31T19:07:58.739Z,54.04
2023-03-31T19:10:33.895Z,55.97
2023-03-31T19:13:28.745Z,58.37
2023-03-31T19:16:24.876Z,59.53
2023-03-31T19:19:12.755Z,60.41
2023-03-31T19:21:54.662Z,69.99
2023-03-31T19:24:35.759Z,64.60
2023-03-31T19:27:18.201Z,55.40
2023-03-31T19:29:59.780Z,54.37
2023-03-31T19:32:41.677Z,56.10
2023-03-31T19:35:23.788Z,58.24
2023-03-31T19:38:14.209Z,59.56
2023-03-31T19:41:01.734Z,61.04
2023-03-31T19:43:36.980Z,69.58
2023-03-31T19:46:26.041Z,66.22
2023-03-31T19:49:04.148Z,59.15
2023-03-31T19:51:51.785Z,52.74
2023-03-31T19:54:26.863Z,53.85
2023-03-31T19:57:15.859Z,54.95
2023-03-31T19:59:50.849Z,56.37
2023-03-31T20:02:38.882Z,56.96
2023-03-31T20:05:14.897Z,57.61
2023-03-31T20:08:02.759Z,58.01
2023-03-31T20:10:44.793Z,59.12
2023-03-31T20:13:42.731Z,59.51
2023-03-31T20:16:32.781Z,60.95
2023-03-31T20:19:09.915Z,68.61
2023-03-31T20:22:00.741Z,66.31
2023-03-31T20:24:42.872Z,56.70
2023-03-31T20:27:32.840Z,53.27
2023-03-31T20:30:14.755Z,54.88
2023-03-31T20:33:09.728Z,58.33
2023-03-31T20:36:12.808Z,58.37
2023-03-31T20:39:02.727Z,61.64
2023-03-31T20:41:37.602Z,64.61
2023-03-31T20:44:27.742Z,66.67
2023-03-31T20:47:02.329Z,57.77
2023-03-31T20:49:50.782Z,52.22
2023-03-31T20:52:25.141Z,52.37
2023-03-31T20:55:12.759Z,54.51
2023-03-31T20:57:47.164Z,56.47
2023-03-31T21:00:34.776Z,58.40
2023-03-31T21:03:09.284Z,58.79
2023-03-31T21:05:58.733Z,59.39
2023-03-31T21:08:33.579Z,60.09
2023-03-31T21:11:22.767Z,60.99
2023-03-31T21:14:03.829Z,69.07
2023-03-31T21:16:45.096Z,67.79
2023-03-31T21:19:26.724Z,56.46
2023-03-31T21:22:14.739Z,53.66
2023-03-31T21:25:04.416Z,55.30
2023-03-31T21:27:46.948Z,56.69
2023-03-31T21:30:37.093Z,57.13
2023-03-31T21:33:15.947Z,58.90
2023-03-31T21:36:05.761Z,59.88
2023-03-31T21:38:40.847Z,61.80
2023-03-31T21:41:32.733Z,69.48
2023-03-31T21:44:15.717Z,62.15
2023-03-31T21:47:11.177Z,53.42
2023-03-31T21:49:58.734Z,54.47
2023-03-31T21:52:39.739Z,56.43
2023-03-31T21:55:27.905Z,57.37
2023-03-31T21:58:05.450Z,57.85
2023-03-31T22:00:53.736Z,59.13
2023-03-31T22:03:29.235Z,59.77
2023-03-31T22:06:16.807Z,60.29
2023-03-31T22:08:52.112Z,60.32
2023-03-31T22:11:39.747Z,60.86
2023-03-31T22:14:15.163Z,69.45
2023-03-31T22:17:03.939Z,66.16
2023-03-31T22:19:38.903Z,54.25
2023-03-31T22:22:19.723Z,52.71
2023-03-31T22:25:07.755Z,55.01
2023-03-31T22:27:57.733Z,56.77
2023-03-31T22:30:33.732Z,58.70
2023-03-31T22:33:21.738Z,60.03
2023-03-31T22:35:56.879Z,61.48
2023-03-31T22:38:44.753Z,67.88
2023-03-31T22:41:19.905Z,60.95
2023-03-31T22:44:07.717Z,53.94
2023-03-31T22:46:49.815Z,55.94
2023-03-31T22:49:44.704Z,58.75
2023-03-31T22:52:33.805Z,61.06
2023-03-31T22:55:10.164Z,64.37
2023-03-31T22:57:58.744Z,57.50
2023-03-31T23:00:40.718Z,52.38
2023-03-31T23:03:28.725Z,54.98
2023-03-31T23:06:03.911Z,57.75
2023-03-31T23:08:54.715Z,60.08
2023-03-31T23:11:30.660Z,63.09
2023-03-31T23:14:25.725Z,61.26
2023-03-31T23:17:20.765Z,53.03
2023-03-31T23:20:09.749Z,54.62
2023-03-31T23:22:44.827Z,58.26
2023-03-31T23:25:32.907Z,60.77
2023-03-31T23:28:14.710Z,61.72
2023-03-31T23:31:09.851Z,66.27
2023-03-31T23:33:58.913Z,54.83
2023-03-31T23:36:36.381Z,54.57
2023-03-31T23:39:24.726Z,57.61
2023-03-31T23:41:59.833Z,59.59
2023-03-31T23:44:47.725Z,63.25
2023-03-31T23:47:22.830Z,64.62
2023-03-31T23:50:10.705Z,54.10
2023-03-31T23:52:45.948Z,53.78
2023-03-31T23:55:34.984Z,56.74
2023-03-31T23:58:09.855Z,59.55
